Time;durP1;ratioP1;P1;durP2;ratioP2;P2;SDS_P1;SDS_P2;PMS_P1;PMS_P2;Temp;Humidity;BMP_temperature;BMP_pressure;BME280_temperature;BME280_humidity;BME280_pressure;Samples;Min_cycle;Max_cycle;Signal;HPM_P1;HPM_P2
2022/02/10 00:21:33;;;;;;;5.22;2.78;;;;;;;10.04;100.00;98339.84;4901122;29;20052;-83
2022/02/10 00:35:11;;;;;;;6.25;2.95;;;;;;;10.09;100.00;98355.22;4909520;29;20056;-80
2022/02/10 00:37:51;;;;;;;5.85;2.97;;;;;;;10.23;100.00;98353.38;4897996;29;20120;-82
2022/02/10 00:40:20;;;;;;;7.85;2.95;;;;;;;10.25;100.00;98345.75;4881607;29;20148;-78
2022/02/10 00:42:47;;;;;;;7.40;2.40;;;;;;;10.10;100.00;98360.31;4899393;29;20052;-81
2022/02/10 00:45:14;;;;;;;7.35;2.90;;;;;;;10.12;100.00;98362.75;4882600;29;20154;-81
2022/02/10 00:47:54;;;;;;;6.72;2.70;;;;;;;10.13;100.00;98340.81;4901278;29;20063;-81
2022/02/10 00:50:23;;;;;;;7.13;2.42;;;;;;;10.28;100.00;98347.88;4900620;29;20124;-82
2022/02/10 00:52:58;;;;;;;7.95;3.00;;;;;;;10.19;100.00;98357.78;4907223;29;20056;-79
2022/02/10 00:55:28;;;;;;;6.72;2.90;;;;;;;10.11;100.00;98350.28;4914395;29;20037;-79
2022/02/10 00:57:55;;;;;;;5.93;2.75;;;;;;;10.12;100.00;98368.16;4911688;29;20136;-84
2022/02/10 01:14:05;;;;;;;6.15;2.67;;;;;;;10.45;100.00;98372.53;4906207;29;20112;-84
2022/02/10 01:30:12;;;;;;;6.20;2.92;;;;;;;10.42;100.00;98346.03;4908997;29;20065;-81
2022/02/10 01:32:43;;;;;;;5.25;2.80;;;;;;;10.41;100.00;98339.81;4887508;29;20053;-80
2022/02/10 01:35:14;;;;;;;6.53;3.10;;;;;;;10.44;100.00;98344.66;4887171;29;20057;-83
2022/02/10 01:37:40;;;;;;;7.18;3.40;;;;;;;10.33;100.00;98329.66;4904525;29;20067;-83
2022/02/10 01:40:19;;;;;;;6.53;3.10;;;;;;;10.48;100.00;98344.84;4891714;29;20049;-79
2022/02/10 02:04:22;;;;;;;4.72;2.80;;;;;;;10.48;100.00;98306.94;4900320;29;20415;-83
2022/02/10 02:06:54;;;;;;;6.38;2.85;;;;;;;10.59;100.00;98306.47;4883417;29;20057;-83
2022/02/10 02:09:21;;;;;;;6.88;3.08;;;;;;;10.29;100.00;98288.06;4883393;29;20060;-82
2022/02/10 02:11:52;;;;;;;8.40;3.17;;;;;;;10.31;100.00;98290.47;4897436;29;20083;-81
2022/02/10 02:14:24;;;;;;;8.32;3.97;;;;;;;10.08;100.00;98258.91;4881316;29;20152;-83
2022/02/10 02:16:55;;;;;;;6.82;3.05;;;;;;;10.24;100.00;98279.22;4883300;29;20056;-82
2022/02/10 02:19:23;;;;;;;5.80;3.90;;;;;;;10.46;100.00;98274.75;4902134;29;20052;-82
2022/02/10 02:21:50;;;;;;;6.05;3.25;;;;;;;10.55;100.00;98251.34;4903717;29;20053;-82
2022/02/10 02:24:20;;;;;;;5.43;2.88;;;;;;;10.59;100.00;98254.22;4903275;29;20080;-82
2022/02/10 02:26:49;;;;;;;5.75;2.78;;;;;;;10.84;100.00;98264.56;4904851;29;20119;-84
2022/02/10 02:29:29;;;;;;;6.20;3.10;;;;;;;10.40;100.00;98256.22;4906169;29;20049;-83
2022/02/10 02:32:00;;;;;;;8.65;3.10;;;;;;;10.33;100.00;98266.59;4906442;29;20053;-81
2022/02/10 03:04:49;;;;;;;7.38;2.90;;;;;;;9.27;100.00;98179.88;4906872;29;20072;-82
2022/02/10 03:12:35;;;;;;;6.37;2.77;;;;;;;9.22;100.00;98208.84;4905217;29;20056;-84
2022/02/10 03:15:05;;;;;;;6.57;3.15;;;;;;;9.07;100.00;98206.38;4887762;29;20374;-84
2022/02/10 03:20:45;;;;;;;8.13;3.63;;;;;;;8.83;100.00;98189.44;4896202;29;20057;-82
2022/02/10 04:02:10;;;;;;;11.10;4.07;;;;;;;8.38;100.00;98159.22;4905469;29;20056;-81
2022/02/10 04:07:40;;;;;;;7.05;3.25;;;;;;;8.16;100.00;98148.09;4905659;29;20057;-83
2022/02/10 04:10:38;;;;;;;6.45;3.28;;;;;;;8.13;100.00;98157.53;4901242;29;20052;-82
2022/02/10 04:13:14;;;;;;;9.77;3.25;;;;;;;8.34;100.00;98152.75;4897496;29;20080;-83
2022/02/10 04:55:47;;;;;;;8.05;3.10;;;;;;;9.21;100.00;98134.34;4905848;29;20085;-81
2022/02/10 05:35:15;;;;;;;8.32;4.15;;;;;;;8.39;100.00;98092.56;4902946;29;20084;-81
2022/02/10 05:37:37;;;;;;;9.40;3.45;;;;;;;8.57;100.00;98087.19;4882988;29;20430;-81
2022/02/10 05:40:09;;;;;;;11.25;4.15;;;;;;;8.28;100.00;98080.28;4882165;29;20052;-81
2022/02/10 05:45:15;;;;;;;11.68;3.80;;;;;;;8.31;100.00;98082.41;4882878;29;20053;-83
2022/02/10 05:48:03;;;;;;;8.15;4.03;;;;;;;8.02;100.00;98085.97;4884438;29;20057;-82
2022/02/10 05:55:58;;;;;;;8.98;4.40;;;;;;;7.90;100.00;98063.97;4907231;29;20215;-81
2022/02/10 05:59:18;;;;;;;8.25;4.20;;;;;;;7.84;100.00;98032.81;4907470;29;20071;-80
2022/02/10 06:53:01;;;;;;;7.22;3.30;;;;;;;7.98;100.00;98036.38;4900834;29;20112;-83
2022/02/10 07:04:15;;;;;;;7.15;3.10;;;;;;;8.03;100.00;98035.53;4881781;29;20288;-83
2022/02/10 07:53:20;;;;;;;7.20;3.55;;;;;;;9.29;100.00;98023.69;4873989;29;19928;-80
2022/02/10 08:49:37;;;;;;;;;;;;;;;10.02;100.00;97985.78;4901075;29;20147;-84
2022/02/10 08:59:04;;;;;;;8.75;3.20;;;;;;;12.50;69.39;97967.47;4907269;29;19979;-81
2022/02/10 09:15:22;;;;;;;9.32;3.10;;;;;;;13.96;57.70;97958.19;4898010;29;20075;-83
2022/02/10 09:20:59;;;;;;;9.10;3.00;;;;;;;14.02;58.76;97957.66;4907757;29;20048;-82
2022/02/10 09:58:36;;;;;;;7.38;2.90;;;;;;;14.60;53.64;97945.13;4913977;29;20096;-83
2022/02/10 10:04:06;;;;;;;6.57;2.67;;;;;;;14.13;54.86;97947.19;4914698;29;20065;-86
2022/02/10 10:07:12;;;;;;;6.35;2.53;;;;;;;13.31;57.20;97951.25;4915445;29;20113;-85
2022/02/10 10:10:16;;;;;;;9.93;2.72;;;;;;;12.13;61.89;97967.28;4911323;29;20057;-85
2022/02/10 10:21:11;;;;;;;11.63;3.00;;;;;;;11.13;74.98;97966.19;4888319;29;20101;-84
2022/02/10 10:24:39;;;;;;;11.20;3.40;;;;;;;11.12;77.81;97970.03;4897475;29;20091;-84
2022/02/10 10:52:17;;;;;;;9.85;3.90;;;;;;;11.62;83.51;97908.19;4907999;29;20115;-84
2022/02/10 10:55:03;;;;;;;11.55;4.10;;;;;;;11.40;87.47;97911.00;4891250;29;20052;-84
2022/02/10 10:57:35;;;;;;;9.45;4.22;;;;;;;12.24;76.23;97915.06;4892539;29;20052;-84
2022/02/10 11:00:26;;;;;;;10.80;3.88;;;;;;;12.55;74.72;97908.66;4905699;29;20067;-84
2022/02/10 11:42:08;;;;;;;12.37;4.40;;;;;;;10.80;100.00;97886.31;4885320;29;20049;-84
2022/02/10 12:34:56;;;;;;;12.32;5.68;;;;;;;10.18;100.00;97848.31;4901925;29;20100;-84
2022/02/10 13:34:22;;;;;;;26.55;8.88;;;;;;;8.65;100.00;97894.91;4907529;29;20049;-83
2022/02/10 14:09:40;;;;;;;23.90;8.70;;;;;;;8.71;100.00;97891.03;4900631;29;20121;-83
2022/02/10 14:17:50;;;;;;;22.80;9.10;;;;;;;8.88;100.00;97903.19;4886479;29;20058;-83
2022/02/10 14:25:40;;;;;;;20.90;8.65;;;;;;;8.66;100.00;97883.03;4909105;29;20313;-81
2022/02/10 14:28:22;;;;;;;20.60;8.48;;;;;;;8.54;100.00;97879.97;4908893;29;20084;-83
2022/02/10 14:30:53;;;;;;;20.73;8.38;;;;;;;8.45;100.00;97870.97;4907060;29;20123;-83
2022/02/10 14:33:29;;;;;;;21.58;8.32;;;;;;;8.47;100.00;97881.47;4908671;29;20060;-82
2022/02/10 14:36:03;;;;;;;21.65;8.38;;;;;;;8.82;100.00;97907.06;4908559;29;20084;-83
2022/02/10 14:41:34;;;;;;;22.70;7.88;;;;;;;8.64;100.00;97916.81;4907622;29;20059;-82
2022/02/10 16:17:23;;;;;;;23.85;12.02;;;;;;;8.05;100.00;97985.59;4900786;29;20063;-83
2022/02/10 16:19:50;;;;;;;26.85;12.38;;;;;;;7.86;100.00;97955.16;4900773;29;20074;-83
2022/02/10 16:24:52;;;;;;;25.60;11.48;;;;;;;7.85;100.00;97958.13;4904926;29;20450;-81
2022/02/10 16:29:57;;;;;;;23.02;12.00;;;;;;;8.10;100.00;97972.06;4904994;29;20080;-84
2022/02/10 16:32:24;;;;;;;31.45;12.65;;;;;;;7.81;100.00;97959.78;4962917;23;20102;-79
2022/02/10 16:34:57;;;;;;;26.50;12.95;;;;;;;7.95;100.00;97991.13;4946077;29;20043;-80
2022/02/10 16:37:24;;;;;;;25.80;12.70;;;;;;;7.88;100.00;97973.72;4935347;29;20059;-80
2022/02/10 16:39:50;;;;;;;25.77;12.70;;;;;;;7.96;100.00;97997.34;4948576;29;20066;-80
2022/02/10 16:42:17;;;;;;;24.05;13.15;;;;;;;8.08;100.00;98016.59;4960644;28;20050;-81
2022/02/10 16:44:48;;;;;;;22.70;12.02;;;;;;;8.02;100.00;97998.88;4961058;29;20094;-81
2022/02/10 16:47:15;;;;;;;27.50;13.38;;;;;;;8.21;100.00;98009.69;4946879;28;20066;-81
2022/02/10 16:49:50;;;;;;;27.33;12.68;;;;;;;7.95;100.00;97993.03;4952422;29;20066;-81
2022/02/10 16:52:25;;;;;;;31.73;14.02;;;;;;;7.97;100.00;98015.94;4958073;29;20142;-80
2022/02/10 16:55:10;;;;;;;25.83;13.02;;;;;;;7.68;100.00;97990.94;4961280;29;20051;-81
2022/02/10 16:57:47;;;;;;;25.48;13.30;;;;;;;7.90;100.00;98020.03;4956552;29;20066;-81
2022/02/10 17:14:08;;;;;;;25.35;12.82;;;;;;;7.53;100.00;97994.63;4959426;29;20078;-80
2022/02/10 17:14:23;;;;;;;28.15;13.10;;;;;;;7.64;100.00;98006.06;4971520;28;20102;-81
2022/02/10 17:27:28;;;;;;;20.73;11.88;;;;;;;7.70;100.00;97999.53;4951259;29;20061;-79
2022/02/10 17:46:22;;;;;;;27.40;11.85;;;;;;;8.12;100.00;98013.03;4961311;29;20067;-79
2022/02/10 17:54:06;;;;;;;22.20;11.15;;;;;;;8.08;100.00;98021.97;4961770;29;20685;-79
2022/02/10 17:56:33;;;;;;;23.30;11.88;;;;;;;8.16;100.00;98010.56;4961804;28;20055;-78
2022/02/10 17:59:00;;;;;;;24.73;11.30;;;;;;;8.26;100.00;98015.03;4960164;28;20066;-78
2022/02/10 18:01:28;;;;;;;26.45;12.35;;;;;;;8.29;100.00;98023.34;4960352;29;20153;-78
2022/02/10 18:03:55;;;;;;;26.23;11.07;;;;;;;8.15;100.00;98027.84;4958216;28;20059;-79
2022/02/10 18:06:24;;;;;;;23.27;11.50;;;;;;;8.10;100.00;98025.22;4952125;29;20094;-80
2022/02/10 18:14:58;;;;;;;20.73;10.70;;;;;;;8.22;100.00;98035.56;4951253;28;20047;-77
2022/02/10 18:17:27;;;;;;;21.92;11.73;;;;;;;8.01;100.00;98037.72;4955967;28;20055;-78
2022/02/10 18:19:59;;;;;;;22.38;11.52;;;;;;;8.24;100.00;98033.38;4959516;28;20567;-79
2022/02/10 18:22:40;;;;;;;23.80;12.43;;;;;;;8.10;100.00;98033.28;4958192;28;20153;-79
2022/02/10 18:25:27;;;;;;;23.30;12.13;;;;;;;8.09;100.00;98028.97;4957371;29;20101;-79
2022/02/10 18:30:37;;;;;;;24.17;12.07;;;;;;;8.21;100.00;98026.66;4961210;28;20399;-80
2022/02/10 18:37:56;;;;;;;26.63;12.98;;;;;;;8.30;100.00;98032.25;4963856;29;20077;-80
2022/02/10 19:09:22;;;;;;;24.40;13.20;;;;;;;8.18;100.00;98044.22;4957725;28;20086;-79
2022/02/10 19:11:56;;;;;;;24.90;13.48;;;;;;;8.06;100.00;98046.53;4959921;29;20058;-80
2022/02/10 19:14:25;;;;;;;27.02;13.38;;;;;;;8.00;100.00;98033.44;4953642;29;20066;-79
2022/02/10 19:16:54;;;;;;;26.45;13.80;;;;;;;7.97;100.00;98034.00;4954821;29;20057;-78
2022/02/10 19:19:21;;;;;;;26.95;13.25;;;;;;;7.86;100.00;98030.63;4957637;29;20058;-78
2022/02/10 19:21:48;;;;;;;26.52;13.52;;;;;;;8.11;100.00;98034.88;4961628;28;20289;-79
2022/02/10 19:24:17;;;;;;;25.73;13.70;;;;;;;7.92;100.00;98032.13;4958803;29;20046;-78
2022/02/10 19:26:50;;;;;;;26.77;13.40;;;;;;;8.00;100.00;98052.28;4958498;28;20057;-78
2022/02/10 19:29:19;;;;;;;28.20;14.63;;;;;;;8.06;100.00;98049.25;4962672;28;20054;-79
2022/02/10 19:31:48;;;;;;;28.15;14.95;;;;;;;8.02;100.00;98045.53;4964329;28;20059;-79
2022/02/10 19:34:15;;;;;;;30.80;15.40;;;;;;;7.81;100.00;98029.88;4971034;28;20039;-77
2022/02/10 19:37:02;;;;;;;32.75;15.80;;;;;;;7.93;100.00;98033.75;4953537;29;20051;-79
2022/02/10 19:39:28;;;;;;;34.25;15.50;;;;;;;7.90;100.00;98047.00;4958189;28;20055;-80
2022/02/10 19:41:55;;;;;;;36.00;16.58;;;;;;;7.86;100.00;98043.28;4955656;29;20129;-80
2022/02/10 19:44:22;;;;;;;31.10;16.45;;;;;;;7.82;100.00;98036.88;4957418;28;20074;-80
2022/02/10 19:46:49;;;;;;;28.83;15.75;;;;;;;7.83;100.00;98041.97;4957479;28;20055;-78
2022/02/10 19:49:23;;;;;;;32.85;16.20;;;;;;;7.87;100.00;98040.28;4955983;28;20783;-79
2022/02/10 19:51:50;;;;;;;35.03;16.80;;;;;;;7.91;100.00;98037.84;4955568;28;20079;-79
2022/02/10 19:54:24;;;;;;;32.10;17.30;;;;;;;7.90;100.00;98036.22;4954411;28;20043;-79
2022/02/10 19:56:55;;;;;;;36.20;17.48;;;;;;;8.03;100.00;98049.81;4951518;29;20161;-78
2022/02/10 19:59:28;;;;;;;38.65;18.08;;;;;;;7.96;100.00;98030.50;4955370;28;20047;-80
2022/02/10 20:01:54;;;;;;;32.58;16.70;;;;;;;7.91;100.00;98040.53;4952160;29;20059;-78
2022/02/10 20:04:23;;;;;;;32.10;16.98;;;;;;;7.84;100.00;98035.50;4953469;29;20083;-81
2022/02/10 20:06:51;;;;;;;28.90;16.70;;;;;;;7.84;100.00;98037.38;4958734;28;20059;-80
2022/02/10 20:09:19;;;;;;;31.98;16.83;;;;;;;7.66;100.00;98030.03;4957923;28;20051;-79
2022/02/10 20:11:51;;;;;;;35.42;17.48;;;;;;;7.82;100.00;98024.19;4955647;28;20047;-79
2022/02/10 20:14:23;;;;;;;29.98;17.00;;;;;;;7.86;100.00;98029.81;4950916;29;20705;-79
2022/02/10 20:16:52;;;;;;;30.45;16.95;;;;;;;7.96;100.00;98027.78;4954258;28;20055;-77
2022/02/10 20:19:20;;;;;;;31.75;16.15;;;;;;;8.02;100.00;98021.25;4955657;28;20078;-78
2022/02/10 20:21:46;;;;;;;38.33;17.45;;;;;;;7.88;100.00;98033.81;4959437;28;20047;-77
2022/02/10 20:24:13;;;;;;;34.88;18.02;;;;;;;7.93;100.00;98033.75;4956957;28;20152;-80
2022/02/10 20:26:41;;;;;;;36.05;18.83;;;;;;;7.89;100.00;98035.44;4955616;29;20056;-81
2022/02/10 20:29:10;;;;;;;37.20;19.00;;;;;;;7.81;100.00;98038.75;4955589;28;20150;-79
2022/02/10 20:31:39;;;;;;;33.78;18.65;;;;;;;7.92;100.00;98031.34;4961068;28;20126;-80
2022/02/10 20:34:08;;;;;;;38.28;19.02;;;;;;;7.94;100.00;98029.97;4960563;28;20055;-79
2022/02/10 20:36:36;;;;;;;34.63;18.88;;;;;;;7.87;100.00;98018.72;4959701;28;20105;-81
2022/02/10 20:39:04;;;;;;;36.97;18.65;;;;;;;7.96;100.00;98032.38;4955814;29;20523;-81
2022/02/10 20:41:34;;;;;;;38.47;18.65;;;;;;;7.96;100.00;98017.00;4955801;29;20055;-79
2022/02/10 20:44:01;;;;;;;35.47;19.45;;;;;;;7.94;100.00;98018.38;4955135;29;20260;-81
2022/02/10 20:46:31;;;;;;;35.35;19.35;;;;;;;7.97;100.00;98015.13;4956280;28;20086;-82
2022/02/10 20:49:01;;;;;;;38.05;20.00;;;;;;;7.84;100.00;98000.47;4954014;28;20055;-79
2022/02/10 20:51:28;;;;;;;34.72;19.70;;;;;;;7.85;100.00;97985.88;4953726;29;20059;-81
2022/02/10 20:53:54;;;;;;;36.35;19.65;;;;;;;7.99;100.00;98007.53;4959182;28;20066;-80
2022/02/10 20:56:22;;;;;;;40.85;19.95;;;;;;;7.88;100.00;98006.06;4957662;28;20043;-78
2022/02/10 20:58:59;;;;;;;33.05;19.15;;;;;;;7.79;100.00;98002.41;4955984;28;20082;-80
2022/02/10 21:01:26;;;;;;;40.40;19.95;;;;;;;7.96;100.00;98010.81;4956021;28;20078;-81
2022/02/10 21:03:53;;;;;;;34.60;19.33;;;;;;;7.88;100.00;98001.47;4956019;28;20075;-81
2022/02/10 21:12:18;;;;;;;41.28;21.10;;;;;;;7.87;100.00;98005.25;4892391;29;20095;-80
2022/02/10 21:14:46;;;;;;;43.85;21.20;;;;;;;7.72;100.00;97986.56;4931572;28;20176;-79
2022/02/10 21:17:19;;;;;;;39.28;20.73;;;;;;;7.87;100.00;97997.16;4950041;28;20065;-81
2022/02/10 21:19:45;;;;;;;42.38;22.02;;;;;;;7.92;100.00;97994.41;4942509;29;20055;-80
2022/02/10 21:22:17;;;;;;;45.17;21.75;;;;;;;7.84;100.00;98000.47;4956605;29;20051;-78
2022/02/10 21:24:56;;;;;;;45.95;22.92;;;;;;;7.83;100.00;97998.03;4962769;28;20071;-80
2022/02/10 21:30:02;;;;;;;44.53;22.00;;;;;;;7.90;100.00;97982.31;4973320;28;20051;-83
2022/02/10 21:32:32;;;;;;;40.90;21.65;;;;;;;7.90;100.00;98003.88;4971881;28;20074;-79
2022/02/10 21:35:21;;;;;;;47.50;21.98;;;;;;;7.90;100.00;98001.97;4971494;28;20126;-82
2022/02/10 21:53:56;;;;;;;35.13;18.52;;;;;;;7.86;100.00;97976.72;4946291;29;20063;-80
2022/02/10 22:03:22;;;;;;;37.92;19.85;;;;;;;7.84;100.00;97983.47;4947657;29;20060;-80
2022/02/10 22:18:30;;;;;;;39.55;19.58;;;;;;;8.42;100.00;97971.38;4944915;29;20103;-78
2022/02/10 22:23:21;;;;;;;36.47;20.25;;;;;;;8.71;100.00;97977.41;4965409;29;20047;-81
2022/02/10 22:25:51;;;;;;;36.85;20.38;;;;;;;8.46;100.00;97968.91;4961898;28;20055;-80
2022/02/10 22:28:31;;;;;;;39.00;20.23;;;;;;;8.50;100.00;97967.22;4969621;28;20063;-83
2022/02/10 22:31:18;;;;;;;;;;;;;;;;;;;;;
2022/02/10 22:36:09;;;;;;;34.08;19.33;;;;;;;8.74;100.00;97981.41;4965372;28;20059;-80
2022/02/10 22:38:36;;;;;;;39.17;21.38;;;;;;;8.64;100.00;97990.47;4963945;28;20059;-81
2022/02/10 22:41:10;;;;;;;38.35;21.05;;;;;;;8.85;100.00;97973.97;4963834;29;20051;-79
2022/02/10 22:43:41;;;;;;;39.22;21.42;;;;;;;8.93;100.00;97976.00;4962551;29;20043;-81
2022/02/10 22:46:09;;;;;;;40.90;21.05;;;;;;;8.77;100.00;97978.13;4966668;28;20115;-81
2022/02/10 22:48:36;;;;;;;41.60;21.38;;;;;;;8.68;100.00;97980.69;4983412;28;20168;-81
2022/02/10 22:51:03;;;;;;;37.78;20.52;;;;;;;8.63;100.00;97967.28;4968495;28;20712;-78
2022/02/10 22:53:35;;;;;;;38.67;20.38;;;;;;;8.38;100.00;97964.97;4965414;28;20063;-83
2022/02/10 22:56:02;;;;;;;34.72;19.75;;;;;;;8.49;100.00;97966.41;4963936;28;20087;-81
2022/02/10 22:58:32;;;;;;;34.35;19.17;;;;;;;8.52;100.00;97962.31;4962802;28;20102;-82
2022/02/10 23:00:59;;;;;;;37.65;19.98;;;;;;;8.27;100.00;97984.28;4963961;28;20059;-81
2022/02/10 23:03:28;;;;;;;38.92;20.60;;;;;;;8.35;100.00;97983.63;4966395;28;20066;-80
2022/02/10 23:05:56;;;;;;;38.97;20.58;;;;;;;8.37;100.00;97984.13;4959951;28;20073;-81
2022/02/10 23:08:22;;;;;;;38.42;20.98;;;;;;;8.26;100.00;97980.75;4958472;28;20051;-80
2022/02/10 23:10:50;;;;;;;20.17;11.55;;;;;;;7.89;100.00;97981.53;4959877;28;20051;-79
2022/02/10 23:13:28;;;;;;;15.38;8.50;;;;;;;7.69;100.00;97986.34;4959329;28;20066;-79
2022/02/10 23:15:57;;;;;;;12.95;8.00;;;;;;;7.27;100.00;97984.38;4956649;28;20670;-81
2022/02/10 23:18:26;;;;;;;12.43;6.15;;;;;;;7.17;100.00;97989.88;4958128;29;20055;-79
2022/02/10 23:20:55;;;;;;;8.63;5.07;;;;;;;7.01;100.00;97988.41;4960845;29;20078;-79
2022/02/10 23:23:26;;;;;;;9.55;5.18;;;;;;;6.88;100.00;97982.59;4966815;28;20040;-79
2022/02/10 23:25:54;;;;;;;9.40;5.40;;;;;;;7.01;100.00;97994.59;4962018;28;20102;-79
2022/02/10 23:28:23;;;;;;;8.82;5.13;;;;;;;6.87;100.00;97980.16;4958753;29;20051;-78
2022/02/10 23:30:52;;;;;;;9.75;5.25;;;;;;;6.83;100.00;97995.28;4962198;29;20074;-79
2022/02/10 23:33:25;;;;;;;11.00;6.15;;;;;;;7.11;100.00;97981.03;4959732;29;20114;-78
2022/02/10 23:44:02;;;;;;;11.27;5.95;;;;;;;7.03;100.00;97987.03;4960781;29;20044;-79
2022/02/10 23:46:31;;;;;;;11.40;6.30;;;;;;;6.88;100.00;97977.22;4959350;28;20057;-80
2022/02/10 23:48:58;;;;;;;12.05;6.68;;;;;;;6.99;100.00;97983.31;4960649;28;20200;-80
2022/02/10 23:51:29;;;;;;;11.73;6.88;;;;;;;6.97;100.00;97977.38;4961935;29;20098;-79
2022/02/10 23:53:55;;;;;;;13.25;7.75;;;;;;;6.76;100.00;97986.75;4961876;29;20051;-80
2022/02/10 23:56:27;;;;;;;14.70;7.93;;;;;;;7.17;100.00;97992.56;4961243;29;20122;-80
2022/02/10 23:59:05;;;;;;;14.40;7.50;;;;;;;7.12;100.00;97971.88;4964521;29;20487;-81
